createdAt,value
2023-03-21T00:03:31.670Z,131.13
2023-03-21T00:05:31.652Z,128.36
2023-03-21T00:06:31.591Z,129.39
2023-03-21T00:07:31.625Z,131.82
2023-03-21T00:08:31.609Z,132.08
2023-03-21T00:09:31.591Z,131.64
2023-03-21T00:10:40.078Z,132.21
2023-03-21T00:11:32.596Z,132.22
2023-03-21T00:12:31.557Z,132.12
2023-03-21T00:13:32.636Z,132.10
2023-03-21T00:14:31.578Z,131.09
2023-03-21T00:15:42.545Z,129.85
2023-03-21T00:16:36.771Z,132.27
2023-03-21T00:18:31.575Z,132.44
2023-03-21T00:19:31.579Z,132.82
2023-03-21T00:20:31.532Z,132.38
2023-03-21T00:21:55.290Z,132.60
2023-03-21T00:22:32.497Z,132.36
2023-03-21T00:23:31.520Z,132.23
2023-03-21T00:24:31.485Z,132.34
2023-03-21T00:25:31.474Z,132.62
2023-03-21T00:26:31.505Z,125.78
2023-03-21T00:27:50.090Z,129.39
2023-03-21T00:28:32.455Z,129.54
2023-03-21T00:29:31.477Z,129.78
2023-03-21T00:30:31.439Z,130.21
2023-03-21T00:31:31.575Z,129.88
2023-03-21T00:32:33.954Z,129.30
2023-03-21T00:33:31.585Z,130.24
2023-03-21T00:34:42.809Z,130.39
2023-03-21T00:35:57.969Z,130.42
2023-03-21T00:36:32.675Z,130.51
2023-03-21T00:37:31.573Z,130.31
2023-03-21T00:38:31.594Z,130.21
2023-03-21T00:39:31.555Z,129.74
2023-03-21T00:40:35.334Z,129.63
2023-03-21T00:41:41.922Z,130.48
2023-03-21T00:42:32.574Z,130.53
2023-03-21T00:43:31.536Z,130.66
2023-03-21T00:44:31.524Z,130.56
2023-03-21T00:45:31.554Z,130.96
2023-03-21T00:46:43.730Z,129.97
2023-03-21T00:47:32.544Z,130.52
2023-03-21T00:48:31.579Z,129.50
2023-03-21T00:49:31.530Z,129.44
2023-03-21T00:50:31.521Z,128.80
2023-03-21T00:51:31.517Z,128.45
2023-03-21T00:52:40.660Z,127.82
2023-03-21T00:53:32.477Z,127.92
2023-03-21T00:54:31.466Z,127.91
2023-03-21T00:55:31.474Z,127.95
2023-03-21T00:56:31.477Z,126.77
2023-03-21T00:57:38.616Z,126.26
2023-03-21T00:58:32.443Z,127.83
2023-03-21T00:59:31.436Z,126.57
2023-03-21T01:00:31.460Z,127.08
2023-03-21T01:01:31.518Z,125.61
2023-03-21T01:02:31.435Z,127.84
2023-03-21T01:03:31.428Z,126.72
2023-03-21T01:04:31.428Z,126.88
2023-03-21T01:05:31.421Z,125.40
2023-03-21T01:06:31.384Z,127.18
2023-03-21T01:07:31.393Z,127.82
2023-03-21T01:08:44.553Z,127.92
2023-03-21T01:09:32.381Z,128.02
2023-03-21T01:10:31.375Z,128.20
2023-03-21T01:11:31.366Z,125.48
2023-03-21T01:12:31.336Z,126.51
2023-03-21T01:13:33.077Z,126.49
2023-03-21T01:14:31.323Z,128.85
2023-03-21T01:15:31.353Z,127.27
2023-03-21T01:16:31.437Z,126.72
2023-03-21T01:17:31.336Z,127.04
2023-03-21T01:18:31.317Z,126.23
2023-03-21T01:19:44.716Z,128.11
2023-03-21T01:20:32.303Z,128.26
2023-03-21T01:21:31.304Z,127.82
2023-03-21T01:22:31.271Z,125.91
2023-03-21T01:23:31.267Z,125.45
2023-03-21T01:24:32.345Z,124.21
2023-03-21T01:25:31.273Z,123.11
2023-03-21T01:27:31.268Z,126.22
2023-03-21T01:31:31.235Z,123.25
2023-03-21T01:32:31.267Z,125.27
2023-03-21T01:33:31.275Z,122.74
2023-03-21T01:34:31.351Z,122.83
2023-03-21T01:35:37.490Z,122.15
2023-03-21T01:37:31.385Z,122.14
2023-03-21T01:38:31.372Z,122.86
2023-03-21T01:39:31.360Z,122.76
2023-03-21T01:40:31.369Z,122.28
2023-03-21T01:41:43.734Z,122.54
2023-03-21T01:42:32.348Z,122.58
2023-03-21T01:43:31.338Z,122.14
2023-03-21T01:44:31.337Z,122.65
2023-03-21T01:45:31.415Z,122.32
2023-03-21T01:46:37.112Z,121.19
2023-03-21T01:47:32.329Z,122.66
2023-03-21T01:48:31.322Z,123.05
2023-03-21T01:49:31.300Z,122.29
2023-03-21T01:50:31.294Z,122.39
2023-03-21T01:51:31.288Z,120.91
2023-03-21T01:52:37.607Z,121.70
2023-03-21T01:54:31.269Z,121.91
2023-03-21T02:15:31.230Z,121.60
2023-03-21T02:16:31.312Z,123.44
2023-03-21T02:18:31.339Z,121.76
2023-03-21T02:19:35.680Z,120.69
2023-03-21T02:20:32.438Z,120.81
2023-03-21T02:21:31.446Z,120.90
2023-03-21T02:22:31.395Z,121.54
2023-03-21T02:23:31.390Z,122.41
2023-03-21T02:24:31.352Z,121.22
2023-03-21T02:25:31.387Z,121.51
2023-03-21T02:27:31.355Z,119.92
2023-03-21T02:31:31.387Z,118.72
2023-03-21T02:33:31.406Z,119.37
2023-03-21T02:34:31.362Z,119.94
2023-03-21T02:35:32.257Z,118.99
2023-03-21T02:36:31.525Z,119.64
2023-03-21T02:37:37.718Z,120.80
2023-03-21T02:38:32.536Z,120.81
2023-03-21T02:39:31.490Z,120.65
2023-03-21T02:40:31.468Z,119.56
2023-03-21T02:41:38.285Z,117.39
2023-03-21T02:42:32.473Z,120.84
2023-03-21T02:45:31.465Z,118.44
2023-03-21T02:46:41.784Z,119.00
2023-03-21T02:47:32.461Z,120.83
2023-03-21T02:48:41.297Z,118.92
2023-03-21T02:49:32.453Z,120.85
2023-03-21T02:50:31.408Z,119.98
2023-03-21T02:51:31.389Z,117.57
2023-03-21T02:52:39.190Z,115.54
2023-03-21T02:53:32.394Z,119.55
2023-03-21T02:54:46.915Z,118.18
2023-03-21T02:55:32.363Z,119.83
2023-03-21T02:56:31.392Z,117.95
2023-03-21T02:57:41.867Z,117.37
2023-03-21T02:58:32.374Z,120.35
2023-03-21T02:59:31.930Z,118.08
2023-03-21T03:00:31.367Z,116.42
2023-03-21T03:01:31.368Z,117.30
2023-03-21T03:02:31.362Z,117.67
2023-03-21T03:03:34.737Z,117.90
2023-03-21T03:04:31.390Z,117.94
2023-03-21T03:05:31.297Z,116.95
2023-03-21T03:06:31.327Z,117.59
2023-03-21T03:07:31.301Z,116.61
2023-03-21T03:08:41.359Z,116.01
2023-03-21T03:10:31.305Z,117.78
2023-03-21T03:11:31.275Z,117.18
2023-03-21T03:12:31.264Z,116.84
2023-03-21T03:13:31.260Z,115.58
2023-03-21T03:17:31.233Z,116.56
2023-03-21T03:34:31.306Z,114.92
2023-03-21T03:35:31.348Z,114.20
2023-03-21T03:36:32.951Z,112.81
2023-03-21T03:37:31.357Z,112.12
2023-03-21T03:38:31.366Z,111.99
2023-03-21T03:39:31.355Z,111.70
2023-03-21T03:40:31.382Z,112.55
2023-03-21T03:41:50.294Z,113.57
2023-03-21T03:42:32.385Z,113.73
2023-03-21T03:43:31.381Z,113.68
2023-03-21T03:44:31.347Z,113.72
2023-03-21T03:45:31.340Z,114.02
2023-03-21T03:46:31.360Z,113.25
2023-03-21T03:47:34.924Z,113.18
2023-03-21T03:48:31.395Z,113.27
2023-03-21T03:49:31.337Z,113.53
2023-03-21T03:50:31.288Z,113.76
2023-03-21T03:51:31.306Z,111.92
2023-03-21T03:52:31.294Z,111.62
2023-03-21T03:53:31.291Z,111.40
2023-03-21T03:54:31.264Z,110.37
2023-03-21T03:55:31.278Z,108.76
2023-03-21T03:56:31.234Z,110.66
2023-03-21T03:57:31.241Z,111.61
2023-03-21T03:58:44.542Z,111.27
2023-03-21T03:59:32.254Z,111.37
2023-03-21T04:18:31.427Z,111.24
2023-03-21T04:19:31.479Z,110.71
2023-03-21T04:20:37.007Z,112.20
2023-03-21T04:21:32.517Z,112.32
2023-03-21T04:22:31.487Z,112.28
2023-03-21T04:23:31.472Z,112.24
2023-03-21T04:24:31.490Z,112.87
2023-03-21T04:25:34.136Z,112.94
2023-03-21T04:26:31.471Z,116.29
2023-03-21T04:27:31.458Z,116.17
2023-03-21T04:28:31.476Z,115.98
2023-03-21T04:29:31.463Z,116.06
2023-03-21T04:30:31.441Z,115.80
2023-03-21T04:31:31.496Z,116.55
2023-03-21T04:32:31.441Z,117.33
2023-03-21T04:33:31.401Z,116.81
2023-03-21T04:34:31.378Z,117.66
2023-03-21T04:35:31.402Z,117.10
2023-03-21T04:36:31.389Z,118.10
2023-03-21T04:37:31.396Z,117.99
2023-03-21T04:38:31.390Z,117.49
2023-03-21T04:39:31.360Z,119.56
2023-03-21T04:40:31.375Z,118.33
2023-03-21T04:41:31.350Z,117.91
2023-03-21T04:42:31.328Z,119.53
2023-03-21T04:43:31.362Z,119.24
2023-03-21T04:44:31.325Z,119.21
2023-03-21T04:45:31.335Z,120.30
2023-03-21T04:46:31.312Z,119.23
2023-03-21T04:47:31.330Z,118.60
2023-03-21T04:48:31.300Z,118.98
2023-03-21T04:49:31.307Z,119.98
2023-03-21T04:50:31.260Z,119.84
2023-03-21T04:51:31.272Z,119.86
2023-03-21T04:52:31.303Z,119.19
2023-03-21T04:53:31.270Z,119.88
2023-03-21T04:54:31.278Z,120.71
2023-03-21T04:55:31.269Z,120.12
2023-03-21T05:52:31.994Z,118.63
2023-03-21T06:00:32.185Z,117.91
2023-03-21T06:01:39.202Z,118.12
2023-03-21T08:33:36.330Z,145.18
2023-03-21T08:36:36.000Z,129.72
2023-03-21T08:37:36.034Z,134.51
2023-03-21T08:38:36.064Z,129.08
2023-03-21T08:39:36.097Z,128.19
2023-03-21T08:40:36.133Z,130.13
2023-03-21T08:41:36.154Z,123.88
2023-03-21T08:42:36.139Z,129.86
2023-03-21T08:43:36.323Z,127.18
2023-03-21T08:44:36.125Z,124.71
2023-03-21T08:45:36.337Z,114.95
2023-03-21T08:46:36.171Z,107.26
2023-03-21T08:47:36.184Z,106.90
2023-03-21T08:48:36.151Z,107.64
2023-03-21T08:49:36.158Z,104.48
2023-03-21T08:50:36.188Z,102.14
2023-03-21T08:51:36.190Z,101.19
2023-03-21T08:52:36.161Z,97.02
2023-03-21T08:53:36.329Z,88.95
2023-03-21T08:54:36.232Z,82.75
2023-03-21T08:55:36.389Z,85.36
2023-03-21T08:56:37.451Z,87.72
2023-03-21T08:57:36.348Z,89.53
2023-03-21T08:58:36.433Z,88.89
2023-03-21T08:59:36.508Z,88.92
2023-03-21T09:00:36.540Z,87.07
2023-03-21T09:01:36.652Z,90.06
2023-03-21T09:02:36.666Z,89.59
2023-03-21T09:03:36.715Z,89.26
2023-03-21T09:04:36.759Z,79.74
2023-03-21T09:05:37.090Z,83.85
2023-03-21T09:06:36.896Z,86.75
2023-03-21T09:07:37.034Z,80.12
2023-03-21T09:08:37.021Z,74.62
2023-03-21T09:09:37.019Z,70.92
2023-03-21T09:10:37.077Z,58.93
2023-03-21T09:11:37.161Z,53.11
2023-03-21T09:12:37.202Z,49.66
2023-03-21T09:13:37.219Z,48.18
2023-03-21T09:14:37.209Z,48.71
2023-03-21T09:15:37.706Z,50.64
2023-03-21T09:16:37.222Z,55.24
2023-03-21T09:17:37.234Z,53.75
2023-03-21T09:18:37.325Z,56.53
2023-03-21T09:19:37.355Z,59.19
2023-03-21T09:20:37.444Z,56.42
2023-03-21T09:21:37.489Z,63.33
2023-03-21T09:22:37.539Z,61.47
2023-03-21T09:23:37.854Z,67.96
2023-03-21T09:24:37.660Z,74.83
2023-03-21T09:25:37.900Z,71.66
2023-03-21T09:26:37.673Z,65.99
2023-03-21T09:27:37.695Z,68.78
2023-03-21T09:28:37.803Z,74.76
2023-03-21T09:29:37.792Z,71.25
2023-03-21T09:30:37.849Z,78.00
2023-03-21T09:31:38.020Z,78.17
2023-03-21T09:32:37.927Z,69.42
2023-03-21T09:33:38.342Z,59.36
2023-03-21T09:34:37.983Z,56.54
2023-03-21T09:35:38.350Z,61.15
2023-03-21T09:36:38.009Z,58.33
2023-03-21T09:37:38.013Z,58.85
2023-03-21T09:38:38.044Z,49.35
2023-03-21T09:39:38.042Z,44.75
2023-03-21T09:40:38.088Z,36.79
2023-03-21T09:45:38.526Z,25.70
2023-03-21T09:46:38.179Z,28.22
2023-03-21T09:47:38.140Z,26.26
2023-03-21T09:48:46.990Z,29.82
2023-03-21T09:49:39.159Z,29.92
2023-03-21T09:50:38.161Z,28.07
2023-03-21T09:52:38.123Z,36.59
2023-03-21T09:53:38.319Z,44.53
2023-03-21T09:54:38.169Z,42.25
2023-03-21T09:55:38.342Z,47.59
2023-03-21T09:56:38.114Z,53.78
2023-03-21T09:57:38.090Z,58.24
2023-03-21T09:58:38.144Z,60.52
2023-03-21T09:59:38.118Z,64.72
2023-03-21T10:00:38.192Z,65.87
2023-03-21T10:01:38.165Z,66.50
2023-03-21T10:02:38.073Z,64.96
2023-03-21T10:03:38.216Z,54.76
2023-03-21T10:04:38.362Z,58.58
2023-03-21T10:05:38.451Z,71.64
2023-03-21T10:06:38.170Z,77.40
2023-03-21T10:07:38.177Z,82.55
2023-03-21T10:08:38.199Z,77.89
2023-03-21T10:09:38.632Z,65.22
2023-03-21T10:10:38.570Z,60.17
2023-03-21T10:12:38.352Z,36.33
2023-03-21T10:13:38.413Z,33.53
2023-03-21T10:15:38.782Z,38.50
2023-03-21T10:16:38.621Z,55.69
2023-03-21T12:43:43.065Z,187.11
2023-03-21T12:44:43.104Z,189.03
2023-03-21T12:45:47.087Z,188.27
2023-03-21T12:46:43.309Z,188.43
2023-03-21T12:47:43.181Z,188.90
2023-03-21T12:48:43.132Z,189.53
2023-03-21T12:49:43.111Z,190.37
2023-03-21T12:50:43.187Z,191.27
2023-03-21T12:51:43.110Z,192.09
2023-03-21T12:52:43.092Z,192.96
2023-03-21T12:53:43.185Z,192.48
2023-03-21T12:55:43.070Z,192.61
2023-03-21T12:56:43.052Z,193.50
2023-03-21T12:57:51.155Z,194.14
2023-03-21T12:58:44.051Z,194.34
2023-03-21T12:59:43.034Z,194.64
2023-03-21T13:00:43.442Z,194.50
2023-03-21T13:01:43.026Z,194.35
2023-03-21T13:02:43.014Z,194.95
2023-03-21T13:03:43.044Z,195.25
2023-03-21T13:04:42.991Z,194.60
2023-03-21T13:05:43.023Z,194.16
2023-03-21T13:06:42.985Z,195.81
2023-03-21T13:07:43.003Z,195.18
2023-03-21T13:08:42.953Z,196.07
2023-03-21T13:09:43.080Z,196.01
2023-03-21T13:10:42.974Z,197.68
2023-03-21T13:11:42.944Z,198.10
2023-03-21T13:12:42.952Z,197.08
2023-03-21T13:13:42.931Z,196.55
2023-03-21T13:14:42.940Z,194.94
2023-03-21T13:15:42.953Z,193.77
2023-03-21T13:16:43.113Z,191.03
2023-03-21T13:17:42.987Z,189.55
2023-03-21T13:18:43.001Z,189.16
2023-03-21T13:19:42.989Z,185.43
2023-03-21T13:20:43.015Z,182.84
2023-03-21T13:21:43.010Z,178.22
2023-03-21T13:22:43.036Z,176.88
2023-03-21T13:23:43.032Z,170.75
2023-03-21T13:24:43.044Z,168.66
2023-03-21T13:25:43.165Z,170.48
2023-03-21T13:26:43.044Z,170.61
2023-03-21T13:27:43.082Z,166.89
2023-03-21T13:28:43.095Z,165.35
2023-03-21T13:29:43.107Z,169.58
2023-03-21T13:30:43.232Z,166.90
2023-03-21T13:31:51.720Z,163.11
2023-03-21T13:32:44.272Z,163.37
2023-03-21T15:55:45.988Z,175.57
2023-03-21T15:56:46.168Z,175.71
2023-03-21T15:57:46.101Z,175.63
2023-03-21T15:58:46.129Z,173.36
2023-03-21T15:59:46.190Z,173.25
2023-03-21T16:00:46.341Z,170.88
2023-03-21T16:01:46.397Z,170.47
2023-03-21T16:02:46.378Z,166.75
2023-03-21T16:03:46.423Z,170.48
2023-03-21T16:04:46.502Z,167.47
2023-03-21T16:05:46.645Z,166.00
2023-03-21T16:06:46.602Z,165.18
2023-03-21T16:07:46.697Z,164.05
2023-03-21T16:08:46.752Z,166.47
2023-03-21T16:09:46.775Z,166.36
2023-03-21T16:10:46.869Z,165.64
2023-03-21T16:11:46.912Z,165.57
2023-03-21T16:12:46.988Z,165.25
2023-03-21T16:13:47.050Z,166.85
2023-03-21T16:14:47.093Z,167.27
2023-03-21T16:15:47.166Z,167.91
2023-03-21T16:16:47.352Z,167.92
2023-03-21T16:17:47.258Z,167.68
2023-03-21T16:18:47.343Z,169.54
2023-03-21T16:19:47.385Z,168.58
2023-03-21T16:20:47.480Z,169.55
2023-03-21T16:21:47.537Z,169.23
2023-03-21T16:22:47.613Z,170.22
2023-03-21T16:23:47.682Z,172.07
2023-03-21T16:24:47.684Z,170.15
2023-03-21T16:25:47.774Z,170.41
2023-03-21T16:26:47.915Z,171.74
2023-03-21T16:27:47.888Z,171.43
2023-03-21T16:28:47.913Z,171.79
2023-03-21T16:29:47.933Z,170.56
2023-03-21T16:30:47.945Z,172.33
2023-03-21T16:31:48.016Z,170.38
2023-03-21T16:32:47.976Z,172.68
2023-03-21T16:33:48.008Z,170.42
2023-03-21T16:34:47.996Z,171.68
2023-03-21T16:35:48.068Z,172.62
2023-03-21T16:36:48.042Z,171.00
2023-03-21T16:37:48.130Z,172.25
2023-03-21T16:38:48.085Z,172.13
2023-03-21T16:39:48.119Z,170.12
2023-03-21T16:40:48.120Z,171.68
2023-03-21T16:41:48.140Z,171.59
2023-03-21T16:42:48.178Z,172.09
2023-03-21T16:43:48.215Z,172.97
2023-03-21T16:44:48.188Z,171.10
2023-03-21T16:45:48.418Z,172.99
2023-03-21T16:46:48.218Z,171.53
2023-03-21T16:47:48.376Z,171.11
2023-03-21T16:48:48.263Z,172.91
2023-03-21T16:49:48.284Z,172.97
2023-03-21T16:50:48.343Z,172.71
2023-03-21T16:51:48.370Z,173.53
2023-03-21T16:52:48.349Z,173.77
2023-03-21T16:53:48.362Z,172.87
2023-03-21T16:54:48.467Z,174.31
2023-03-21T16:55:48.505Z,173.37
2023-03-21T16:56:48.535Z,173.98
2023-03-21T16:57:48.607Z,175.04
2023-03-21T16:58:48.630Z,174.17
2023-03-21T16:59:48.662Z,173.32
2023-03-21T17:00:48.648Z,174.22
2023-03-21T17:01:48.914Z,174.25
2023-03-21T17:02:48.731Z,174.31
2023-03-21T17:03:48.748Z,174.70
2023-03-21T17:04:48.764Z,173.25
2023-03-21T17:05:48.755Z,173.93
2023-03-21T17:06:48.799Z,172.02
2023-03-21T17:07:48.818Z,174.25
2023-03-21T17:08:48.871Z,173.27
2023-03-21T17:09:48.864Z,174.47
2023-03-21T17:10:48.881Z,173.35
2023-03-21T17:11:48.898Z,172.18
2023-03-21T17:12:48.936Z,173.12
2023-03-21T17:13:48.934Z,173.47
2023-03-21T17:14:48.945Z,174.39
2023-03-21T17:15:49.000Z,172.93
2023-03-21T17:16:49.021Z,174.35
2023-03-21T17:17:49.056Z,172.81
2023-03-21T17:18:49.058Z,172.85
2023-03-21T17:19:49.070Z,174.36
2023-03-21T17:20:49.075Z,174.20
2023-03-21T17:21:49.152Z,174.20
2023-03-21T17:22:49.163Z,173.26
2023-03-21T17:23:49.172Z,172.96
2023-03-21T17:24:49.208Z,172.77
2023-03-21T17:25:49.202Z,173.87
2023-03-21T17:26:49.208Z,173.80
2023-03-21T17:27:49.244Z,173.24
2023-03-21T17:28:49.307Z,172.41
2023-03-21T17:29:49.341Z,172.66
2023-03-21T17:30:49.339Z,172.73
2023-03-21T17:31:49.343Z,172.01
2023-03-21T17:32:49.391Z,172.27
2023-03-21T17:33:49.460Z,175.28
2023-03-21T17:34:49.504Z,173.41
2023-03-21T17:35:49.566Z,174.24
2023-03-21T17:36:49.606Z,173.02
2023-03-21T17:37:49.688Z,174.28
2023-03-21T17:38:49.746Z,173.54
2023-03-21T17:39:49.719Z,173.48
2023-03-21T17:40:50.582Z,173.26
2023-03-21T17:41:49.905Z,173.84
2023-03-21T17:42:49.805Z,174.53
2023-03-21T17:43:49.832Z,173.22
2023-03-21T17:44:49.867Z,173.83
2023-03-21T17:45:49.940Z,173.31
2023-03-21T17:46:51.690Z,174.34
2023-03-21T17:47:50.102Z,175.23
2023-03-21T17:48:50.116Z,173.42
2023-03-21T17:49:50.149Z,172.46
2023-03-21T17:50:50.185Z,174.58
2023-03-21T17:51:50.245Z,173.21
2023-03-21T17:52:50.870Z,175.83
2023-03-21T17:53:50.356Z,175.68
2023-03-21T17:54:50.416Z,175.44
2023-03-21T17:55:50.501Z,174.95
2023-03-21T17:56:50.538Z,174.33
2023-03-21T17:57:50.577Z,176.19
2023-03-21T17:58:50.618Z,174.02
2023-03-21T17:59:50.685Z,173.68
2023-03-21T18:00:50.739Z,174.60
2023-03-21T18:01:50.824Z,174.21
2023-03-21T18:02:50.830Z,174.50
2023-03-21T18:03:50.819Z,172.01
2023-03-21T18:04:50.935Z,171.81
2023-03-21T18:05:50.951Z,173.80
2023-03-21T18:06:50.997Z,171.85
2023-03-21T18:08:10.997Z,171.90
2023-03-21T18:08:52.916Z,172.02
2023-03-21T18:09:50.997Z,172.11
2023-03-21T18:10:50.979Z,169.69
2023-03-21T18:11:50.993Z,170.87
2023-03-21T18:12:50.990Z,170.23
2023-03-21T18:13:50.979Z,168.33
2023-03-21T18:14:50.965Z,168.86
2023-03-21T18:15:51.040Z,167.73
2023-03-21T18:16:51.062Z,168.38
2023-03-21T18:17:50.966Z,168.69
2023-03-21T18:40:51.413Z,165.54
2023-03-21T18:41:51.403Z,165.70
2023-03-21T18:43:45.495Z,163.72
2023-03-21T18:45:51.454Z,164.38
2023-03-21T18:46:51.502Z,163.89
2023-03-21T18:47:51.435Z,163.76
2023-03-21T18:48:51.773Z,164.48
2023-03-21T18:50:14.284Z,163.75
2023-03-21T18:50:52.417Z,164.02
2023-03-21T19:42:52.405Z,154.33
2023-03-21T20:37:54.257Z,145.91
2023-03-21T20:40:54.291Z,142.01
2023-03-21T20:41:54.306Z,144.85
2023-03-21T20:42:55.442Z,143.67
2023-03-21T20:44:59.004Z,142.18
2023-03-21T20:45:55.326Z,142.48
2023-03-21T20:46:54.324Z,143.61
2023-03-21T20:47:54.416Z,143.90
2023-03-21T20:48:54.304Z,145.60
2023-03-21T20:49:54.283Z,145.52
2023-03-21T20:52:46.212Z,144.56
2023-03-21T20:53:06.416Z,144.88
2023-03-21T20:53:55.378Z,144.93
2023-03-21T21:38:54.308Z,133.14
2023-03-21T21:39:54.365Z,134.11
2023-03-21T21:40:54.367Z,133.65
2023-03-21T21:41:54.426Z,135.18
2023-03-21T21:42:54.492Z,133.92
2023-03-21T21:43:54.503Z,130.84
2023-03-21T21:44:54.555Z,132.31
2023-03-21T21:45:54.603Z,129.41
2023-03-21T21:46:54.620Z,131.11
2023-03-21T21:47:54.687Z,128.87
2023-03-21T21:48:54.786Z,133.15
2023-03-21T21:49:54.739Z,131.14
2023-03-21T21:50:54.786Z,132.93
2023-03-21T21:51:54.788Z,134.00
2023-03-21T21:52:54.888Z,131.58
2023-03-21T21:53:54.919Z,133.13
2023-03-21T21:54:54.968Z,133.38
2023-03-21T21:55:54.986Z,133.98
2023-03-21T21:56:55.021Z,134.56
2023-03-21T21:57:55.103Z,133.00
2023-03-21T21:58:55.101Z,132.01
2023-03-21T21:59:55.120Z,132.94
2023-03-21T22:00:55.208Z,134.82
2023-03-21T22:01:55.239Z,134.42
2023-03-21T22:02:55.286Z,133.61
2023-03-21T22:03:55.288Z,131.61
2023-03-21T22:04:55.333Z,129.25
2023-03-21T22:05:55.359Z,132.12
2023-03-21T22:06:55.493Z,133.43
2023-03-21T22:07:55.463Z,130.04
2023-03-21T22:08:55.484Z,132.30
2023-03-21T22:09:55.541Z,130.59
2023-03-21T22:10:55.525Z,129.69
2023-03-21T22:11:55.565Z,131.12
2023-03-21T22:12:55.625Z,130.19
2023-03-21T22:13:55.663Z,128.28
2023-03-21T22:14:55.703Z,129.42
2023-03-21T22:15:55.749Z,126.32
2023-03-21T22:16:55.769Z,128.93
2023-03-21T22:17:55.807Z,127.89
2023-03-21T22:18:55.860Z,128.22
2023-03-21T22:20:05.613Z,126.12
2023-03-21T22:20:56.889Z,126.29
2023-03-21T22:21:55.913Z,126.58
2023-03-21T22:22:55.877Z,127.39
2023-03-21T22:23:55.897Z,127.15
2023-03-21T22:24:55.889Z,124.51
2023-03-21T22:25:55.879Z,126.92
2023-03-21T22:26:55.857Z,128.19
2023-03-21T22:27:55.854Z,126.35
2023-03-21T22:28:55.869Z,126.57
2023-03-21T22:29:55.829Z,125.85
2023-03-21T22:30:55.829Z,127.16
2023-03-21T22:31:55.871Z,125.86
2023-03-21T22:33:08.481Z,125.41
2023-03-21T22:33:56.841Z,125.61
2023-03-21T22:34:55.817Z,126.20
2023-03-21T22:35:55.835Z,127.56
2023-03-21T22:36:55.827Z,127.65
2023-03-21T22:37:55.776Z,129.81
2023-03-21T22:38:55.769Z,128.47
2023-03-21T22:39:55.782Z,127.96
2023-03-21T22:40:55.802Z,128.86
2023-03-21T22:41:55.737Z,127.72
2023-03-21T22:42:55.784Z,129.35
2023-03-21T22:43:55.766Z,128.07
2023-03-21T22:44:55.764Z,128.28
2023-03-21T22:45:55.788Z,127.08
2023-03-21T22:46:55.737Z,126.92
2023-03-21T22:47:55.825Z,124.61
2023-03-21T22:48:55.822Z,128.20
2023-03-21T22:49:55.836Z,128.93
2023-03-21T22:50:55.930Z,127.93
2023-03-21T22:51:55.970Z,127.33
2023-03-21T22:52:55.976Z,127.15
2023-03-21T22:53:56.034Z,128.61
2023-03-21T22:54:56.066Z,129.28
2023-03-21T22:55:56.094Z,123.99
2023-03-21T22:56:56.163Z,124.51
2023-03-21T22:57:56.213Z,125.63
2023-03-21T22:58:56.278Z,128.33
2023-03-21T22:59:56.286Z,125.49
2023-03-21T23:00:56.335Z,127.84
2023-03-21T23:01:56.260Z,126.49
2023-03-21T23:02:56.272Z,128.14
2023-03-21T23:03:56.308Z,125.43
2023-03-21T23:04:56.282Z,127.42
2023-03-21T23:05:56.747Z,123.74
2023-03-21T23:06:56.298Z,121.83
2023-03-21T23:07:56.262Z,122.95
2023-03-21T23:08:56.260Z,121.76
2023-03-21T23:09:56.275Z,121.07
2023-03-21T23:10:56.289Z,120.88
2023-03-21T23:11:56.273Z,122.76
2023-03-21T23:12:56.267Z,120.57
2023-03-21T23:14:07.304Z,122.20
2023-03-21T23:14:57.259Z,122.34
2023-03-21T23:15:56.253Z,120.24
2023-03-21T23:16:56.233Z,119.11
2023-03-21T23:17:56.243Z,122.75
2023-03-21T23:18:56.237Z,122.24
2023-03-21T23:19:56.237Z,119.72
2023-03-21T23:20:56.219Z,119.15
2023-03-21T23:21:56.195Z,115.89
2023-03-21T23:22:56.183Z,118.09
2023-03-21T23:23:56.221Z,116.87
2023-03-21T23:24:56.176Z,118.66
2023-03-21T23:25:56.188Z,119.60
2023-03-21T23:26:56.260Z,113.94
2023-03-21T23:27:56.294Z,113.07
2023-03-21T23:28:56.353Z,117.15
2023-03-21T23:29:56.424Z,115.37
2023-03-21T23:30:56.424Z,115.74
